createdAt,value
2018-09-22T00:00:17.881Z,16.20
2018-09-22T00:02:45.581Z,15.60
2018-09-22T00:07:40.522Z,15.80
2018-09-22T00:12:35.521Z,15.40
2018-09-22T00:15:03.094Z,15.90
2018-09-22T00:17:30.649Z,15.70
2018-09-22T00:19:58.297Z,16.00
2018-09-22T00:22:25.805Z,16.00
2018-09-22T00:24:53.328Z,16.00
2018-09-22T00:27:20.911Z,15.40
2018-09-22T00:29:48.362Z,15.70
2018-09-22T00:34:43.255Z,15.30
2018-09-22T00:37:10.838Z,16.20
2018-09-22T00:39:38.419Z,15.90
2018-09-22T00:42:06.258Z,15.30
2018-09-22T00:44:33.805Z,15.30
2018-09-22T00:47:01.393Z,16.00
2018-09-22T00:49:28.861Z,15.90
2018-09-22T00:51:56.335Z,15.90
2018-09-22T00:54:23.800Z,15.40
2018-09-22T00:56:51.412Z,15.60
2018-09-22T00:59:18.927Z,15.80
2018-09-22T01:01:46.447Z,15.70
2018-09-22T01:04:13.917Z,15.40
2018-09-22T01:06:41.436Z,15.10
2018-09-22T01:09:09.048Z,15.30
2018-09-22T01:14:04.560Z,15.70
2018-09-22T01:16:32.125Z,15.60
2018-09-22T01:18:59.592Z,14.70
2018-09-22T01:21:27.148Z,15.40
2018-09-22T01:26:22.072Z,15.40
2018-09-22T01:28:49.684Z,15.10
2018-09-22T01:31:17.197Z,15.00
2018-09-22T01:33:44.687Z,15.10
2018-09-22T01:36:12.202Z,14.90
2018-09-22T01:38:39.804Z,14.80
2018-09-22T01:41:07.343Z,14.50
2018-09-22T01:43:34.831Z,15.00
2018-09-22T01:46:02.406Z,14.60
2018-09-22T01:48:29.884Z,14.70
2018-09-22T01:50:57.353Z,14.60
2018-09-22T01:53:24.860Z,14.60
2018-09-22T01:55:52.341Z,14.60
2018-09-22T01:58:19.824Z,14.60
2018-09-22T02:00:47.363Z,14.60
2018-09-22T02:03:14.889Z,14.60
2018-09-22T02:05:42.371Z,14.60
2018-09-22T02:08:09.890Z,14.70
2018-09-22T02:10:37.422Z,14.70
2018-09-22T02:13:04.982Z,15.30
2018-09-22T02:20:27.328Z,14.60
2018-09-22T02:25:22.274Z,13.70
2018-09-22T02:27:49.820Z,14.30
2018-09-22T02:30:17.312Z,14.00
2018-09-22T02:35:12.183Z,14.40
2018-09-22T02:42:34.533Z,14.60
2018-09-22T02:45:02.087Z,14.70
2018-09-22T02:47:29.597Z,14.70
2018-09-22T02:49:57.180Z,14.80
2018-09-22T02:52:24.699Z,14.80
2018-09-22T02:57:19.797Z,14.60
2018-09-22T02:59:47.319Z,15.00
2018-09-22T03:02:14.805Z,14.60
2018-09-22T03:09:37.340Z,14.70
2018-09-22T03:12:04.846Z,14.80
2018-09-22T03:14:32.317Z,14.60
2018-09-22T03:16:59.821Z,14.40
2018-09-22T03:19:27.302Z,15.20
2018-09-22T03:21:54.804Z,14.90
2018-09-22T03:24:22.310Z,14.80
2018-09-22T03:26:49.816Z,14.80
2018-09-22T03:29:17.277Z,14.70
2018-09-22T03:31:44.788Z,14.60
2018-09-22T03:36:39.752Z,15.00
2018-09-22T03:39:08.897Z,14.70
2018-09-22T03:41:36.400Z,14.90
2018-09-22T03:46:31.391Z,15.00
2018-09-22T03:51:26.352Z,14.70
2018-09-22T03:53:53.942Z,14.70
2018-09-22T03:56:21.452Z,14.70
2018-09-22T03:58:49.016Z,14.70
2018-09-22T04:01:16.516Z,14.60
2018-09-22T04:06:11.471Z,14.50
2018-09-22T04:08:38.980Z,14.70
2018-09-22T04:11:06.503Z,14.80
2018-09-22T04:13:33.951Z,14.50
2018-09-22T04:16:01.437Z,15.20
2018-09-22T04:20:56.471Z,14.70
2018-09-22T04:25:51.321Z,15.10
2018-09-22T04:28:18.893Z,15.10
2018-09-22T04:30:46.402Z,15.20
2018-09-22T04:33:13.953Z,14.90
2018-09-22T04:35:41.460Z,14.90
2018-09-22T04:38:08.957Z,15.00
2018-09-22T04:40:36.436Z,14.90
2018-09-22T04:43:04.000Z,14.80
2018-09-22T04:45:31.726Z,14.80
2018-09-22T04:47:59.241Z,14.70
2018-09-22T04:50:26.847Z,14.90
2018-09-22T04:52:54.299Z,14.60
2018-09-22T04:55:21.843Z,14.40
2018-09-22T05:00:17.456Z,14.50
2018-09-22T05:02:44.960Z,14.40
2018-09-22T05:05:12.512Z,14.40
2018-09-22T05:07:40.020Z,14.30
2018-09-22T05:12:34.992Z,14.30
2018-09-22T05:15:02.655Z,14.30
2018-09-22T05:17:30.180Z,13.60
2018-09-22T05:19:57.656Z,14.50
2018-09-22T05:22:25.140Z,14.50
2018-09-22T05:24:52.656Z,14.30
2018-09-22T05:27:20.131Z,14.30
2018-09-22T05:29:47.612Z,13.60
2018-09-22T05:37:10.228Z,13.70
2018-09-22T05:39:37.723Z,14.00
2018-09-22T05:42:05.305Z,13.80
2018-09-22T05:44:32.718Z,14.10
2018-09-22T05:47:00.228Z,14.80
2018-09-22T05:54:22.616Z,14.40
2018-09-22T05:56:50.111Z,14.00
2018-09-22T05:59:17.680Z,14.10
2018-09-22T06:01:45.159Z,14.30
2018-09-22T06:04:17.492Z,14.20
2018-09-22T06:06:45.093Z,14.60
2018-09-22T06:09:12.758Z,14.50
2018-09-22T06:11:40.269Z,13.90
2018-09-22T06:14:07.778Z,14.50
2018-09-22T06:16:35.331Z,13.90
2018-09-22T06:19:02.856Z,13.90
2018-09-22T06:21:30.300Z,14.10
2018-09-22T06:26:25.227Z,13.80
2018-09-22T06:28:52.867Z,14.00
2018-09-22T06:31:20.354Z,14.30
2018-09-22T06:33:47.862Z,14.30
2018-09-22T06:36:15.303Z,14.20
2018-09-22T06:41:10.433Z,14.30
2018-09-22T06:43:37.947Z,14.30
2018-09-22T06:46:05.535Z,13.50
2018-09-22T06:48:32.996Z,14.20
2018-09-22T06:51:00.482Z,14.10
2018-09-22T06:53:27.996Z,14.10
2018-09-22T06:55:55.493Z,14.30
2018-09-22T06:58:23.011Z,14.20
2018-09-22T07:00:50.506Z,14.20
2018-09-22T07:03:18.253Z,14.10
2018-09-22T07:05:45.781Z,14.10
2018-09-22T07:08:13.264Z,14.10
2018-09-22T07:10:40.793Z,14.10
2018-09-22T07:13:08.329Z,14.30
2018-09-22T07:23:03.848Z,14.20
2018-09-22T07:25:31.370Z,14.30
2018-09-22T07:27:58.870Z,14.10
2018-09-22T07:32:54.594Z,14.60
2018-09-22T07:35:22.193Z,14.80
2018-09-22T07:37:49.743Z,14.60
2018-09-22T07:40:17.370Z,14.80
2018-09-22T07:42:44.926Z,14.90
2018-09-22T07:45:12.474Z,14.50
2018-09-22T07:50:07.690Z,15.30
2018-09-22T07:55:02.849Z,15.40
2018-09-22T07:59:58.226Z,15.60
2018-09-22T08:02:25.953Z,15.70
2018-09-22T08:04:53.684Z,15.90
2018-09-22T08:07:21.664Z,15.90
2018-09-22T08:09:49.207Z,16.10
2018-09-22T08:19:39.856Z,16.70
2018-09-22T08:22:07.489Z,16.60
2018-09-22T08:24:35.184Z,16.90
2018-09-22T08:27:02.809Z,17.30
2018-09-22T08:29:30.732Z,17.10
2018-09-22T08:31:58.320Z,17.20
2018-09-22T08:34:26.265Z,17.10
2018-09-22T08:36:53.947Z,17.00
2018-09-22T08:39:21.814Z,17.00
2018-09-22T08:41:49.387Z,17.20
2018-09-22T08:44:16.992Z,17.20
2018-09-22T08:51:39.454Z,17.70
2018-09-22T08:54:07.021Z,18.20
2018-09-22T08:56:34.509Z,18.40
2018-09-22T08:59:02.064Z,18.10
2018-09-22T09:01:29.653Z,18.20
2018-09-22T09:06:24.626Z,18.10
2018-09-22T09:08:52.167Z,17.70
2018-09-22T09:11:19.702Z,17.50
2018-09-22T09:13:47.419Z,17.70
2018-09-22T09:16:15.109Z,17.70
2018-09-22T09:18:42.692Z,17.30
2018-09-22T09:21:10.224Z,17.40
2018-09-22T09:23:37.823Z,17.50
2018-09-22T09:26:05.360Z,17.80
2018-09-22T09:31:00.337Z,18.50
2018-09-22T09:33:28.064Z,18.60
2018-09-22T09:35:55.603Z,18.50
2018-09-22T09:38:24.237Z,18.50
2018-09-22T09:43:19.254Z,18.80
2018-09-22T09:45:47.075Z,18.60
2018-09-22T09:48:14.652Z,18.50
2018-09-22T09:50:42.241Z,18.60
2018-09-22T09:53:09.765Z,19.00
2018-09-22T09:55:37.335Z,18.90
2018-09-22T09:58:06.186Z,19.00
2018-09-22T10:00:39.578Z,19.50
2018-09-22T10:03:07.119Z,19.70
2018-09-22T10:05:34.865Z,19.70
2018-09-22T10:08:02.442Z,19.50
2018-09-22T10:10:29.932Z,19.50
2018-09-22T10:12:57.567Z,19.40
2018-09-22T10:15:25.052Z,19.30
2018-09-22T10:17:52.682Z,19.40
2018-09-22T10:20:20.322Z,19.60
2018-09-22T10:22:48.943Z,20.00
2018-09-22T10:25:16.520Z,20.30
2018-09-22T10:27:44.059Z,20.40
2018-09-22T10:30:11.702Z,21.60
2018-09-22T10:32:39.188Z,21.60
2018-09-22T10:35:08.093Z,22.50
2018-09-22T10:37:35.622Z,23.00
2018-09-22T10:40:03.828Z,23.60
2018-09-22T10:42:31.381Z,24.10
2018-09-22T10:44:58.917Z,24.70
2018-09-22T10:47:26.623Z,25.10
2018-09-22T10:49:54.204Z,25.30
2018-09-22T10:52:21.723Z,25.80
2018-09-22T10:54:49.435Z,25.80
2018-09-22T10:57:17.041Z,25.50
2018-09-22T10:59:44.576Z,25.70
2018-09-22T11:02:12.367Z,25.80
2018-09-22T11:04:40.092Z,26.30
2018-09-22T11:07:07.755Z,26.20
2018-09-22T11:09:35.280Z,26.50
2018-09-22T11:12:03.083Z,26.20
2018-09-22T11:14:30.739Z,26.40
2018-09-22T11:16:58.333Z,26.10
2018-09-22T11:21:53.979Z,25.80
2018-09-22T11:24:21.524Z,25.30
2018-09-22T11:26:49.103Z,24.80
2018-09-22T11:29:16.654Z,24.60
2018-09-22T11:31:46.194Z,23.90
2018-09-22T11:34:13.721Z,23.60
2018-09-22T11:36:44.839Z,23.40
2018-09-22T11:39:12.693Z,22.90
2018-09-22T11:41:40.536Z,22.60
2018-09-22T11:44:08.244Z,22.60
2018-09-22T11:46:35.936Z,22.30
2018-09-22T11:49:03.594Z,22.10
2018-09-22T11:51:31.343Z,22.10
2018-09-22T11:53:58.947Z,22.30
2018-09-22T11:56:26.551Z,22.40
2018-09-22T11:58:54.168Z,22.20
2018-09-22T12:01:21.717Z,22.10
2018-09-22T12:03:49.296Z,21.90
2018-09-22T12:06:17.054Z,21.60
2018-09-22T12:11:12.340Z,21.10
2018-09-22T12:13:39.851Z,20.60
2018-09-22T12:16:07.940Z,20.60
2018-09-22T12:18:35.502Z,20.60
2018-09-22T12:21:03.018Z,20.50
2018-09-22T12:28:26.127Z,20.60
2018-09-22T12:30:53.748Z,20.40
2018-09-22T12:33:21.665Z,20.50
2018-09-22T12:38:16.672Z,19.90
2018-09-22T12:40:44.305Z,20.50
2018-09-22T12:43:11.896Z,19.80
2018-09-22T12:45:39.406Z,20.20
2018-09-22T12:48:06.966Z,20.90
2018-09-22T12:50:34.457Z,21.10
2018-09-22T12:53:02.120Z,20.70
2018-09-22T12:55:29.721Z,20.50
2018-09-22T12:57:57.293Z,20.90
2018-09-22T13:00:24.845Z,20.20
2018-09-22T13:05:20.874Z,20.50
2018-09-22T13:07:48.835Z,20.50
2018-09-22T13:10:16.395Z,20.50
2018-09-22T13:15:11.697Z,20.70
2018-09-22T13:20:07.286Z,20.70
2018-09-22T13:22:35.038Z,20.70
2018-09-22T13:25:02.578Z,20.70
2018-09-22T13:27:30.342Z,20.60
2018-09-22T13:29:57.922Z,20.60
2018-09-22T13:32:25.503Z,20.60
2018-09-22T13:34:53.071Z,20.50
2018-09-22T13:37:20.682Z,20.50
2018-09-22T13:42:15.620Z,19.90
2018-09-22T13:44:43.215Z,20.10
2018-09-22T13:49:38.275Z,19.70
2018-09-22T13:52:06.026Z,19.80
2018-09-22T13:54:33.629Z,19.80
2018-09-22T13:59:29.059Z,19.70
2018-09-22T14:01:56.667Z,19.70
2018-09-22T14:06:51.872Z,19.80
2018-09-22T14:09:19.402Z,19.80
2018-09-22T14:11:46.927Z,19.90
2018-09-22T14:16:42.141Z,19.90
2018-09-22T14:19:09.853Z,20.00
2018-09-22T14:24:04.899Z,20.10
2018-09-22T14:26:32.481Z,20.10
2018-09-22T14:29:00.110Z,20.10
2018-09-22T14:31:27.792Z,20.00
2018-09-22T14:33:55.277Z,19.80
2018-09-22T14:36:22.908Z,19.80
2018-09-22T14:41:18.242Z,19.80
2018-09-22T14:43:45.834Z,19.80
2018-09-22T14:46:13.429Z,19.40
2018-09-22T14:48:40.958Z,19.60
2018-09-22T14:53:36.182Z,19.60
2018-09-22T14:56:03.825Z,19.60
2018-09-22T15:03:26.348Z,19.40
2018-09-22T15:08:21.691Z,19.30
2018-09-22T15:10:49.368Z,19.30
2018-09-22T15:15:44.506Z,19.10
2018-09-22T15:18:12.165Z,19.00
2018-09-22T15:20:39.739Z,19.00
2018-09-22T15:23:07.513Z,18.90
2018-09-22T15:25:35.181Z,18.90
2018-09-22T15:28:02.869Z,18.80
2018-09-22T15:32:58.011Z,18.80
2018-09-22T15:35:25.549Z,18.80
2018-09-22T15:37:53.097Z,18.80
2018-09-22T15:40:20.624Z,18.60
2018-09-22T15:42:48.447Z,18.60
2018-09-22T15:47:43.414Z,18.30
2018-09-22T15:50:10.893Z,18.10
2018-09-22T15:52:38.573Z,18.10
2018-09-22T15:55:06.238Z,18.10
2018-09-22T15:57:33.765Z,18.10
2018-09-22T16:00:01.369Z,18.20
2018-09-22T16:02:28.991Z,18.10
2018-09-22T16:04:56.523Z,18.10
2018-09-22T16:07:24.237Z,18.00
2018-09-22T16:09:51.745Z,18.00
2018-09-22T16:14:48.469Z,18.00
2018-09-22T16:17:16.349Z,18.10
2018-09-22T16:19:43.936Z,18.00
2018-09-22T16:22:11.543Z,17.90
2018-09-22T16:24:39.239Z,17.90
2018-09-22T16:27:06.976Z,17.90
2018-09-22T16:29:34.600Z,17.90
2018-09-22T16:32:02.107Z,17.90
2018-09-22T16:34:29.684Z,18.00
2018-09-22T16:39:24.712Z,17.90
2018-09-22T16:44:20.204Z,18.00
2018-09-22T16:46:47.860Z,18.10
2018-09-22T16:51:42.897Z,18.20
2018-09-22T16:54:10.469Z,18.10
2018-09-22T16:56:37.970Z,17.90
2018-09-22T16:59:05.555Z,17.80
2018-09-22T17:01:33.113Z,17.80
2018-09-22T17:04:00.723Z,17.80
2018-09-22T17:06:28.228Z,17.70
2018-09-22T17:08:55.790Z,17.60
2018-09-22T17:11:23.451Z,17.60
2018-09-22T17:13:51.111Z,17.50
2018-09-22T17:16:18.921Z,17.50
2018-09-22T17:21:14.064Z,17.20
2018-09-22T17:23:41.836Z,17.20
2018-09-22T17:28:36.928Z,17.00
2018-09-22T17:31:04.461Z,16.80
2018-09-22T17:33:32.033Z,16.80
2018-09-22T17:35:59.674Z,16.80
2018-09-22T17:38:27.428Z,16.80
2018-09-22T17:40:55.612Z,16.80
2018-09-22T17:43:23.236Z,16.50
2018-09-22T17:45:50.719Z,16.40
2018-09-22T17:48:18.251Z,16.40
2018-09-22T17:50:45.807Z,16.50
2018-09-22T17:53:13.375Z,16.60
2018-09-22T17:55:40.942Z,16.40
2018-09-22T17:58:08.495Z,16.50
2018-09-22T18:00:36.052Z,16.40
2018-09-22T18:03:03.585Z,16.40
2018-09-22T18:05:31.103Z,16.40
2018-09-22T18:07:58.642Z,16.40
2018-09-22T18:10:26.317Z,16.20
2018-09-22T18:12:54.039Z,16.20
2018-09-22T18:15:21.632Z,16.20
2018-09-22T18:17:49.293Z,15.90
2018-09-22T18:20:16.836Z,16.10
2018-09-22T18:22:44.375Z,16.10
2018-09-22T18:25:12.021Z,16.10
2018-09-22T18:27:39.553Z,16.20
2018-09-22T18:30:07.133Z,16.20
2018-09-22T18:32:34.725Z,16.20
2018-09-22T18:35:02.312Z,16.00
2018-09-22T18:37:29.852Z,15.90
2018-09-22T18:42:24.886Z,15.90
2018-09-22T18:44:52.419Z,15.90
2018-09-22T18:49:47.475Z,16.00
2018-09-22T18:54:42.639Z,16.10
2018-09-22T18:57:10.205Z,16.10
2018-09-22T18:59:37.895Z,15.90
2018-09-22T19:04:32.968Z,15.80
2018-09-22T19:07:00.481Z,15.80
2018-09-22T19:09:28.034Z,15.70
2018-09-22T19:11:55.601Z,15.70
2018-09-22T19:14:27.172Z,15.80
2018-09-22T19:16:59.082Z,15.80
2018-09-22T19:19:33.192Z,15.70
2018-09-22T19:22:05.169Z,15.70
2018-09-22T19:24:36.532Z,15.70
2018-09-22T19:27:08.593Z,15.80
2018-09-22T19:29:47.161Z,15.90
2018-09-22T19:32:33.691Z,15.80
2018-09-22T19:35:05.864Z,15.90
2018-09-22T19:37:38.176Z,15.70
2018-09-22T19:40:13.087Z,15.70
2018-09-22T19:42:51.150Z,15.70
2018-09-22T19:45:29.552Z,15.60
2018-09-22T19:48:00.489Z,15.60
2018-09-22T19:50:34.158Z,15.50
2018-09-22T19:53:01.810Z,15.60
2018-09-22T19:55:29.393Z,15.50
2018-09-22T19:57:57.028Z,15.60
2018-09-22T20:00:24.506Z,15.60
2018-09-22T20:02:52.055Z,15.60
2018-09-22T20:05:19.633Z,15.60
2018-09-22T20:07:47.149Z,15.60
2018-09-22T20:10:14.762Z,15.40
2018-09-22T20:12:42.391Z,15.80
2018-09-22T20:15:09.959Z,15.30
2018-09-22T20:17:37.586Z,15.60
2018-09-22T20:20:05.678Z,15.80
2018-09-22T20:22:33.219Z,15.50
2018-09-22T20:27:28.317Z,15.20
2018-09-22T20:29:55.859Z,15.70
2018-09-22T20:32:23.484Z,16.00
2018-09-22T20:34:51.070Z,15.60
2018-09-22T20:37:18.614Z,15.10
2018-09-22T20:39:46.255Z,15.20
2018-09-22T20:42:13.849Z,15.20
2018-09-22T20:44:41.441Z,15.00
2018-09-22T20:47:09.104Z,15.20
2018-09-22T20:52:04.074Z,15.80
2018-09-22T20:56:59.038Z,15.40
2018-09-22T20:59:26.586Z,14.70
2018-09-22T21:01:54.260Z,15.20
2018-09-22T21:06:49.307Z,15.30
2018-09-22T21:09:16.872Z,15.30
2018-09-22T21:14:11.853Z,14.90
2018-09-22T21:16:39.437Z,15.30
2018-09-22T21:19:06.977Z,15.40
2018-09-22T21:22:58.992Z,15.50
2018-09-22T21:25:26.628Z,15.60
2018-09-22T21:30:21.802Z,15.40
2018-09-22T21:37:45.025Z,16.20
2018-09-22T21:40:12.642Z,16.10
2018-09-22T21:42:40.217Z,15.60
2018-09-22T21:45:07.762Z,15.80
2018-09-22T21:47:35.435Z,16.30
2018-09-22T21:50:03.268Z,15.40
2018-09-22T21:52:30.762Z,15.20
2018-09-22T22:04:48.321Z,15.40
2018-09-22T22:07:15.894Z,14.80
2018-09-22T22:09:43.489Z,15.50
2018-09-22T22:12:11.159Z,15.30
2018-09-22T22:14:38.689Z,15.20
2018-09-22T22:17:06.272Z,15.10
2018-09-22T22:22:01.378Z,15.10
2018-09-22T22:24:28.917Z,15.40
2018-09-22T22:26:56.821Z,15.20
2018-09-22T22:29:24.389Z,15.30
2018-09-22T22:31:51.898Z,15.20
2018-09-22T22:34:19.571Z,15.10
2018-09-22T22:36:47.077Z,15.50
2018-09-22T22:39:14.558Z,15.60
2018-09-22T22:41:42.092Z,15.60
2018-09-22T22:44:09.815Z,15.60
2018-09-22T22:46:37.337Z,15.70
2018-09-22T22:49:05.308Z,15.60
2018-09-22T22:51:32.910Z,15.60
2018-09-22T22:54:00.336Z,15.60
2018-09-22T22:56:27.824Z,15.70
2018-09-22T22:58:55.384Z,15.70
2018-09-22T23:01:22.940Z,15.70
2018-09-22T23:03:50.525Z,15.70
2018-09-22T23:06:19.090Z,15.40
2018-09-22T23:08:46.701Z,15.40
2018-09-22T23:11:14.259Z,15.60
2018-09-22T23:13:42.103Z,15.70
2018-09-22T23:16:10.020Z,15.50
2018-09-22T23:18:37.693Z,15.50
2018-09-22T23:21:05.561Z,15.50
2018-09-22T23:23:33.022Z,15.60
2018-09-22T23:26:00.712Z,15.70
2018-09-22T23:28:28.977Z,15.50
2018-09-22T23:30:56.933Z,15.40
2018-09-22T23:33:24.711Z,15.30
2018-09-22T23:38:19.932Z,15.60
2018-09-22T23:45:42.856Z,15.00
2018-09-22T23:50:37.891Z,15.40
2018-09-22T23:55:32.936Z,15.10
2018-09-22T23:58:00.518Z,15.00
